createdAt,value
2019-04-14T00:00:42.636Z,6.20
2019-04-14T00:03:17.269Z,6.10
2019-04-14T00:05:47.670Z,6.20
2019-04-14T00:08:17.669Z,6.20
2019-04-14T00:10:46.919Z,6.20
2019-04-14T00:13:15.732Z,6.20
2019-04-14T00:15:48.481Z,6.20
2019-04-14T00:18:14.865Z,6.20
2019-04-14T00:20:44.715Z,6.20
2019-04-14T00:23:13.645Z,6.20
2019-04-14T00:25:43.399Z,6.20
2019-04-14T00:28:12.158Z,6.30
2019-04-14T00:30:40.970Z,6.30
2019-04-14T00:33:11.334Z,6.30
2019-04-14T00:35:53.917Z,6.30
2019-04-14T00:38:24.373Z,6.20
2019-04-14T00:40:58.291Z,6.20
2019-04-14T00:43:35.314Z,6.10
2019-04-14T00:46:14.712Z,6.10
2019-04-14T00:48:45.208Z,6.10
2019-04-14T00:51:15.488Z,6.10
2019-04-14T00:53:44.600Z,6.10
2019-04-14T00:56:13.446Z,6.10
2019-04-14T00:58:43.156Z,6.00
2019-04-14T01:01:13.236Z,6.10
2019-04-14T01:03:42.186Z,6.00
2019-04-14T01:06:12.136Z,6.00
2019-04-14T01:08:41.038Z,6.00
2019-04-14T01:11:09.758Z,6.00
2019-04-14T01:13:39.655Z,6.00
2019-04-14T01:16:14.186Z,6.00
2019-04-14T01:18:38.909Z,6.00
2019-04-14T01:21:08.815Z,6.00
2019-04-14T01:23:39.080Z,6.10
2019-04-14T01:26:09.076Z,6.00
2019-04-14T01:28:38.097Z,6.10
2019-04-14T01:31:07.655Z,6.10
2019-04-14T01:33:36.473Z,6.10
2019-04-14T01:36:06.108Z,6.10
2019-04-14T01:38:36.357Z,6.10
2019-04-14T01:41:06.319Z,6.10
2019-04-14T01:43:36.326Z,6.10
2019-04-14T01:46:14.796Z,6.10
2019-04-14T01:48:36.703Z,6.10
2019-04-14T01:51:13.515Z,6.10
2019-04-14T01:54:00.265Z,6.10
2019-04-14T01:56:47.217Z,6.10
2019-04-14T01:59:17.337Z,6.20
2019-04-14T02:01:47.877Z,6.20
2019-04-14T02:04:16.635Z,6.10
2019-04-14T02:06:46.220Z,6.10
2019-04-14T02:09:16.206Z,6.20
2019-04-14T02:11:45.004Z,6.20
2019-04-14T02:14:14.776Z,6.20
2019-04-14T02:16:50.091Z,6.20
2019-04-14T02:19:15.234Z,6.20
2019-04-14T02:21:45.500Z,6.20
2019-04-14T02:24:15.599Z,6.20
2019-04-14T02:26:45.814Z,6.20
2019-04-14T02:29:14.818Z,6.20
2019-04-14T02:32:09.953Z,6.20
2019-04-14T02:34:39.148Z,6.30
2019-04-14T02:37:10.800Z,6.30
2019-04-14T02:39:49.952Z,6.30
2019-04-14T02:42:30.927Z,6.30
2019-04-14T02:44:45.744Z,6.30
2019-04-14T02:47:45.096Z,6.30
2019-04-14T02:49:44.106Z,6.30
2019-04-14T02:52:20.477Z,6.30
2019-04-14T02:57:17.821Z,6.30
2019-04-14T02:59:56.661Z,6.30
2019-04-14T03:02:23.119Z,6.30
2019-04-14T03:07:21.507Z,6.40
2019-04-14T03:12:19.151Z,6.40
2019-04-14T03:14:55.599Z,6.40
2019-04-14T03:20:14.045Z,6.30
2019-04-14T03:25:11.511Z,6.30
2019-04-14T03:27:54.623Z,6.40
2019-04-14T03:33:31.911Z,6.40
2019-04-14T03:38:12.816Z,6.30
2019-04-14T03:40:35.635Z,6.30
2019-04-14T03:45:42.824Z,6.30
2019-04-14T03:48:34.448Z,6.30
2019-04-14T03:50:37.124Z,6.30
2019-04-14T03:53:20.293Z,6.20
2019-04-14T03:55:25.479Z,6.20
2019-04-14T03:57:43.422Z,6.20
2019-04-14T04:00:12.172Z,6.20
2019-04-14T04:02:40.922Z,6.20
2019-04-14T04:05:10.599Z,6.20
2019-04-14T04:07:41.013Z,6.10
2019-04-14T04:10:11.559Z,6.10
2019-04-14T04:12:40.341Z,6.10
2019-04-14T04:15:10.391Z,6.20
2019-04-14T04:17:47.295Z,6.20
2019-04-14T04:20:17.779Z,6.20
2019-04-14T04:22:52.243Z,6.20
2019-04-14T04:25:22.758Z,6.20
2019-04-14T04:28:05.895Z,6.20
2019-04-14T04:30:36.424Z,6.20
2019-04-14T04:33:13.304Z,6.20
2019-04-14T04:35:43.799Z,6.20
2019-04-14T04:38:18.084Z,6.20
2019-04-14T04:41:06.274Z,6.20
2019-04-14T04:43:35.069Z,6.20
2019-04-14T04:46:04.748Z,6.20
2019-04-14T04:48:34.873Z,6.20
2019-04-14T04:51:04.931Z,6.20
2019-04-14T04:53:33.799Z,6.20
2019-04-14T04:56:03.545Z,6.20
2019-04-14T04:58:32.774Z,6.20
2019-04-14T05:01:01.729Z,6.20
2019-04-14T05:03:31.717Z,6.20
2019-04-14T05:06:37.299Z,6.30
2019-04-14T05:09:25.292Z,6.30
2019-04-14T05:12:11.017Z,6.30
2019-04-14T05:14:45.605Z,6.20
2019-04-14T05:17:16.987Z,6.20
2019-04-14T05:19:45.832Z,6.30
2019-04-14T05:22:17.434Z,6.30
2019-04-14T05:24:46.085Z,6.30
2019-04-14T05:27:14.942Z,6.30
2019-04-14T05:29:44.819Z,6.30
2019-04-14T05:32:15.121Z,6.30
2019-04-14T05:34:44.092Z,6.30
2019-04-14T05:37:13.880Z,6.30
2019-04-14T05:39:43.942Z,6.30
2019-04-14T05:42:18.953Z,6.30
2019-04-14T05:44:43.203Z,6.30
2019-04-14T05:47:13.155Z,6.40
2019-04-14T05:49:46.823Z,6.40
2019-04-14T05:52:12.327Z,6.40
2019-04-14T05:54:41.142Z,6.40
2019-04-14T05:57:11.240Z,6.30
2019-04-14T05:59:40.102Z,6.40
2019-04-14T06:02:09.322Z,6.40
2019-04-14T06:04:38.181Z,6.40
2019-04-14T06:07:06.905Z,6.40
2019-04-14T06:09:35.753Z,6.40
2019-04-14T06:12:04.499Z,6.40
2019-04-14T06:14:33.221Z,6.40
2019-04-14T06:17:01.979Z,6.40
2019-04-14T06:19:37.017Z,6.40
2019-04-14T06:22:01.078Z,6.40
2019-04-14T06:24:29.826Z,6.50
2019-04-14T06:26:58.542Z,6.50
2019-04-14T06:29:27.264Z,6.40
2019-04-14T06:31:57.654Z,6.40
2019-04-14T06:34:28.018Z,6.40
2019-04-14T06:37:04.137Z,6.40
2019-04-14T06:39:34.499Z,6.40
2019-04-14T06:42:03.483Z,6.50
2019-04-14T06:44:32.235Z,6.40
2019-04-14T06:47:00.962Z,6.50
2019-04-14T06:49:29.681Z,6.50
2019-04-14T06:51:58.430Z,6.60
2019-04-14T06:54:27.154Z,6.50
2019-04-14T06:56:55.877Z,6.50
2019-04-14T06:59:24.641Z,6.50
2019-04-14T07:01:53.434Z,6.50
2019-04-14T07:04:22.253Z,6.50
2019-04-14T07:06:51.482Z,6.60
2019-04-14T07:09:20.406Z,6.60
2019-04-14T07:11:49.354Z,6.60
2019-04-14T07:14:18.105Z,6.60
2019-04-14T07:16:46.907Z,6.60
2019-04-14T07:19:15.704Z,6.70
2019-04-14T07:21:44.455Z,6.80
2019-04-14T07:24:13.276Z,6.80
2019-04-14T07:26:42.184Z,6.80
2019-04-14T07:29:10.994Z,6.80
2019-04-14T07:31:59.762Z,6.90
2019-04-14T07:34:39.234Z,6.90
2019-04-14T07:37:19.239Z,6.90
2019-04-14T07:39:52.161Z,6.90
2019-04-14T07:42:25.498Z,6.90
2019-04-14T07:44:58.694Z,7.00
2019-04-14T07:47:40.986Z,7.00
2019-04-14T07:50:14.842Z,6.90
2019-04-14T07:52:45.924Z,7.00
2019-04-14T07:55:19.317Z,7.00
2019-04-14T07:57:58.979Z,6.90
2019-04-14T08:00:29.368Z,7.00
2019-04-14T08:03:02.585Z,7.10
2019-04-14T08:05:35.482Z,7.10
2019-04-14T08:08:04.477Z,7.20
2019-04-14T08:10:33.288Z,7.20
2019-04-14T08:13:02.050Z,7.20
2019-04-14T08:15:30.789Z,7.40
2019-04-14T08:17:59.570Z,7.50
2019-04-14T08:20:28.397Z,7.60
2019-04-14T08:22:57.911Z,7.80
2019-04-14T08:25:26.882Z,7.80
2019-04-14T08:27:55.636Z,7.60
2019-04-14T08:30:24.374Z,7.60
2019-04-14T08:32:53.192Z,7.50
2019-04-14T08:35:21.990Z,7.50
2019-04-14T08:37:50.706Z,7.60
2019-04-14T08:40:19.425Z,7.70
2019-04-14T08:42:55.848Z,7.80
2019-04-14T08:45:32.211Z,7.70
2019-04-14T08:48:11.877Z,7.70
2019-04-14T08:50:48.173Z,7.70
2019-04-14T08:53:18.567Z,7.70
2019-04-14T08:55:48.929Z,7.70
2019-04-14T08:58:19.289Z,7.70
2019-04-14T09:01:05.915Z,7.70
2019-04-14T09:03:39.232Z,7.60
2019-04-14T09:06:12.115Z,7.70
2019-04-14T09:08:53.090Z,7.80
2019-04-14T09:11:26.314Z,7.90
2019-04-14T09:13:55.106Z,7.90
2019-04-14T09:16:23.827Z,7.90
2019-04-14T09:18:53.769Z,8.00
2019-04-14T09:21:22.698Z,8.00
2019-04-14T09:23:51.422Z,8.10
2019-04-14T09:26:20.165Z,8.10
2019-04-14T09:28:49.004Z,8.00
2019-04-14T09:31:17.727Z,8.20
2019-04-14T09:33:46.469Z,8.30
2019-04-14T09:36:15.271Z,8.30
2019-04-14T09:38:44.017Z,8.30
2019-04-14T09:41:12.810Z,8.30
2019-04-14T09:43:41.541Z,8.30
2019-04-14T09:46:10.381Z,8.30
2019-04-14T09:48:39.099Z,8.40
2019-04-14T09:51:07.829Z,8.40
2019-04-14T09:53:36.570Z,8.50
2019-04-14T09:56:05.380Z,8.60
2019-04-14T09:58:34.165Z,8.60
2019-04-14T10:01:02.994Z,8.50
2019-04-14T10:03:31.719Z,8.40
2019-04-14T10:06:00.472Z,8.30
2019-04-14T10:08:31.152Z,8.20
2019-04-14T10:10:59.616Z,8.30
2019-04-14T10:13:28.346Z,8.20
2019-04-14T10:15:57.184Z,8.30
2019-04-14T10:18:25.942Z,8.30
2019-04-14T10:20:54.733Z,8.30
2019-04-14T10:23:25.482Z,8.30
2019-04-14T10:25:54.036Z,8.30
2019-04-14T10:28:22.762Z,8.30
2019-04-14T10:30:51.578Z,8.40
2019-04-14T10:33:20.306Z,8.10
2019-04-14T10:35:49.022Z,8.10
2019-04-14T10:38:17.838Z,8.10
2019-04-14T10:40:46.634Z,8.20
2019-04-14T10:43:15.530Z,8.30
2019-04-14T10:45:44.391Z,8.30
2019-04-14T10:48:13.272Z,8.50
2019-04-14T10:50:42.068Z,8.50
2019-04-14T10:53:10.805Z,8.50
2019-04-14T10:55:39.599Z,8.70
2019-04-14T10:58:08.417Z,8.70
2019-04-14T11:00:37.245Z,8.70
2019-04-14T11:03:06.076Z,8.80
2019-04-14T11:05:36.461Z,8.70
2019-04-14T11:08:05.269Z,8.70
2019-04-14T11:10:33.993Z,8.80
2019-04-14T11:13:02.756Z,8.80
2019-04-14T11:15:31.498Z,9.00
2019-04-14T11:18:00.290Z,9.10
2019-04-14T11:20:29.038Z,9.20
2019-04-14T11:23:03.439Z,9.10
2019-04-14T11:25:28.150Z,9.10
2019-04-14T11:27:56.897Z,9.20
2019-04-14T11:30:25.690Z,9.20
2019-04-14T11:32:56.054Z,9.30
2019-04-14T11:35:29.219Z,9.20
2019-04-14T11:37:59.590Z,9.20
2019-04-14T11:40:42.154Z,9.30
2019-04-14T11:43:10.913Z,9.30
2019-04-14T11:45:39.706Z,9.20
2019-04-14T11:48:08.629Z,9.00
2019-04-14T11:50:37.424Z,8.90
2019-04-14T11:53:06.222Z,9.00
2019-04-14T11:55:35.042Z,9.10
2019-04-14T11:58:03.934Z,9.20
2019-04-14T12:00:34.302Z,9.40
2019-04-14T12:03:04.701Z,9.50
2019-04-14T12:05:40.892Z,9.50
2019-04-14T12:08:13.962Z,9.30
2019-04-14T12:10:42.766Z,9.30
2019-04-14T12:13:11.558Z,9.10
2019-04-14T12:15:40.285Z,9.00
2019-04-14T12:18:09.037Z,9.00
2019-04-14T12:20:37.766Z,9.00
2019-04-14T12:23:06.569Z,9.20
2019-04-14T12:25:35.330Z,9.30
2019-04-14T12:28:04.776Z,9.30
2019-04-14T12:30:33.755Z,9.40
2019-04-14T12:33:02.565Z,9.10
2019-04-14T12:35:31.367Z,9.00
2019-04-14T12:38:00.087Z,9.20
2019-04-14T12:40:28.838Z,9.40
2019-04-14T12:42:59.200Z,9.40
2019-04-14T12:45:29.561Z,9.50
2019-04-14T12:48:11.550Z,9.40
2019-04-14T12:50:44.653Z,9.20
2019-04-14T12:53:13.456Z,9.10
2019-04-14T12:55:42.284Z,9.00
2019-04-14T12:58:12.648Z,9.10
2019-04-14T13:00:46.049Z,9.30
2019-04-14T13:03:14.806Z,9.40
2019-04-14T13:05:43.542Z,9.30
2019-04-14T13:08:12.257Z,9.40
2019-04-14T13:10:41.008Z,9.30
2019-04-14T13:13:09.744Z,9.40
2019-04-14T13:15:38.589Z,9.50
2019-04-14T13:18:07.311Z,9.40
2019-04-14T13:20:36.039Z,9.40
2019-04-14T13:23:04.901Z,9.30
2019-04-14T13:25:33.640Z,9.40
2019-04-14T13:28:02.419Z,9.50
2019-04-14T13:30:32.813Z,9.50
2019-04-14T13:33:01.612Z,9.40
2019-04-14T13:35:30.334Z,9.50
2019-04-14T13:37:59.158Z,9.70
2019-04-14T13:40:27.877Z,9.80
2019-04-14T13:42:56.606Z,9.80
2019-04-14T13:45:25.372Z,10.00
2019-04-14T13:47:54.090Z,10.00
2019-04-14T13:50:22.819Z,10.00
2019-04-14T13:52:51.594Z,9.90
2019-04-14T13:55:20.315Z,9.90
2019-04-14T13:57:49.038Z,10.00
2019-04-14T14:00:18.494Z,10.00
2019-04-14T14:02:47.231Z,10.20
2019-04-14T14:05:15.963Z,10.00
2019-04-14T14:07:44.795Z,9.90
2019-04-14T14:10:14.422Z,9.90
2019-04-14T14:12:50.821Z,9.70
2019-04-14T14:15:39.429Z,9.80
2019-04-14T14:18:28.165Z,9.80
2019-04-14T14:20:58.531Z,9.80
2019-04-14T14:23:43.721Z,9.70
2019-04-14T14:26:30.377Z,9.60
2019-04-14T14:28:59.172Z,9.70
2019-04-14T14:31:27.969Z,9.80
2019-04-14T14:33:56.694Z,9.70
2019-04-14T14:36:25.507Z,9.70
2019-04-14T14:38:54.229Z,9.60
2019-04-14T14:41:23.251Z,9.70
2019-04-14T14:43:52.120Z,9.60
2019-04-14T14:46:25.243Z,9.60
2019-04-14T14:48:58.622Z,9.60
2019-04-14T14:51:31.738Z,9.70
2019-04-14T14:54:00.493Z,10.00
2019-04-14T14:56:29.302Z,10.00
2019-04-14T14:58:58.099Z,9.90
2019-04-14T15:01:27.016Z,10.00
2019-04-14T15:03:55.742Z,9.60
2019-04-14T15:06:24.473Z,9.40
2019-04-14T15:08:53.228Z,9.50
2019-04-14T15:11:21.954Z,9.50
2019-04-14T15:13:50.741Z,9.70
2019-04-14T15:16:19.562Z,9.70
2019-04-14T15:18:48.298Z,9.60
2019-04-14T15:21:17.019Z,9.50
2019-04-14T15:23:45.774Z,9.40
2019-04-14T15:26:14.585Z,9.40
2019-04-14T15:28:43.335Z,9.40
2019-04-14T15:31:12.082Z,9.40
2019-04-14T15:33:40.882Z,9.40
2019-04-14T15:36:09.614Z,9.30
2019-04-14T15:38:38.363Z,9.60
2019-04-14T15:41:07.091Z,9.60
2019-04-14T15:43:35.809Z,9.60
2019-04-14T15:46:04.562Z,9.70
2019-04-14T15:48:33.351Z,9.70
2019-04-14T15:51:02.077Z,9.50
2019-04-14T15:53:37.697Z,9.40
2019-04-14T15:56:01.410Z,9.50
2019-04-14T15:58:31.774Z,9.60
2019-04-14T16:01:21.444Z,9.60
2019-04-14T16:03:51.809Z,9.50
2019-04-14T16:06:31.225Z,9.30
2019-04-14T16:09:07.745Z,9.50
2019-04-14T16:11:40.000Z,9.50
2019-04-14T16:14:22.074Z,9.50
2019-04-14T16:17:09.913Z,9.50
2019-04-14T16:19:39.601Z,9.30
2019-04-14T16:22:08.377Z,9.10
2019-04-14T16:24:37.213Z,9.00
2019-04-14T16:27:13.337Z,9.10
2019-04-14T16:29:43.725Z,9.10
2019-04-14T16:32:32.356Z,9.20
2019-04-14T16:35:09.006Z,9.20
2019-04-14T16:37:37.865Z,9.10
2019-04-14T16:40:07.167Z,8.90
2019-04-14T16:42:35.919Z,8.90
2019-04-14T16:45:06.246Z,9.00
2019-04-14T16:47:36.220Z,9.10
2019-04-14T16:50:06.122Z,9.10
2019-04-14T16:52:36.481Z,9.10
2019-04-14T16:55:11.102Z,9.10
2019-04-14T16:57:41.490Z,9.20
2019-04-14T17:00:12.051Z,9.30
2019-04-14T17:02:40.927Z,9.40
2019-04-14T17:05:09.656Z,9.30
2019-04-14T17:07:38.369Z,9.30
2019-04-14T17:10:07.492Z,9.40
2019-04-14T17:12:36.219Z,9.40
2019-04-14T17:15:07.490Z,9.20
2019-04-14T17:17:37.881Z,9.00
2019-04-14T17:20:11.936Z,8.90
2019-04-14T17:22:49.029Z,8.80
2019-04-14T17:25:25.541Z,8.90
2019-04-14T17:28:04.822Z,8.80
2019-04-14T17:30:47.346Z,8.80
2019-04-14T17:33:17.744Z,8.80
2019-04-14T17:36:06.451Z,8.70
2019-04-14T17:38:45.459Z,8.60
2019-04-14T17:41:15.847Z,8.60
2019-04-14T17:43:46.211Z,8.50
2019-04-14T17:46:32.882Z,8.50
2019-04-14T17:49:09.029Z,8.50
2019-04-14T17:51:42.113Z,8.50
2019-04-14T17:54:29.948Z,8.40
2019-04-14T17:57:18.558Z,8.40
2019-04-14T18:00:05.424Z,8.20
2019-04-14T18:02:51.802Z,8.30
2019-04-14T18:05:22.229Z,8.30
2019-04-14T18:07:52.530Z,8.30
2019-04-14T18:10:22.946Z,8.20
2019-04-14T18:13:09.793Z,8.20
2019-04-14T18:15:40.190Z,8.30
2019-04-14T18:18:10.565Z,8.30
2019-04-14T18:20:40.917Z,8.20
2019-04-14T18:23:09.679Z,8.10
2019-04-14T18:25:38.487Z,8.10
2019-04-14T18:28:17.938Z,8.00
2019-04-14T18:30:53.824Z,8.00
2019-04-14T18:33:24.175Z,8.00
2019-04-14T18:35:57.350Z,8.00
2019-04-14T18:38:37.113Z,8.00
2019-04-14T18:41:10.486Z,8.00
2019-04-14T18:43:53.221Z,7.90
2019-04-14T18:46:23.590Z,7.90
2019-04-14T18:48:56.758Z,7.90
2019-04-14T18:51:29.934Z,7.90
2019-04-14T18:54:00.324Z,7.90
2019-04-14T18:56:42.241Z,7.80
2019-04-14T18:59:28.986Z,7.80
2019-04-14T19:01:57.782Z,7.80
2019-04-14T19:04:26.510Z,7.70
2019-04-14T19:06:55.270Z,7.70
2019-04-14T19:09:24.014Z,7.70
2019-04-14T19:11:56.900Z,7.70
2019-04-14T19:14:27.411Z,7.70
2019-04-14T19:17:00.594Z,7.70
2019-04-14T19:19:29.337Z,7.70
2019-04-14T19:21:58.149Z,7.70
2019-04-14T19:24:26.888Z,7.60
2019-04-14T19:26:55.613Z,7.60
2019-04-14T19:29:24.408Z,7.60
2019-04-14T19:31:53.126Z,7.60
2019-04-14T19:34:23.323Z,7.50
2019-04-14T19:36:52.074Z,7.50
2019-04-14T19:39:20.802Z,7.50
2019-04-14T19:41:49.638Z,7.50
2019-04-14T19:44:19.418Z,7.50
2019-04-14T19:46:48.153Z,7.40
2019-04-14T19:49:16.925Z,7.40
2019-04-14T19:51:45.696Z,7.50
2019-04-14T19:54:14.417Z,7.50
2019-04-14T19:56:43.551Z,7.50
2019-04-14T19:59:12.379Z,7.40
2019-04-14T20:01:41.169Z,7.40
2019-04-14T20:04:09.914Z,7.40
2019-04-14T20:06:38.743Z,7.40
2019-04-14T20:09:07.561Z,7.40
2019-04-14T20:11:36.569Z,7.40
2019-04-14T20:14:06.965Z,7.40
2019-04-14T20:16:37.432Z,7.50
2019-04-14T20:19:11.002Z,7.50
2019-04-14T20:21:41.411Z,7.50
2019-04-14T20:24:21.102Z,7.50
2019-04-14T20:27:03.604Z,7.50
2019-04-14T20:29:33.998Z,7.50
2019-04-14T20:32:07.324Z,7.60
2019-04-14T20:34:36.139Z,7.60
2019-04-14T20:37:05.026Z,7.60
2019-04-14T20:39:34.028Z,7.60
2019-04-14T20:42:03.921Z,7.60
2019-04-14T20:44:32.790Z,7.60
2019-04-14T20:47:01.599Z,7.50
2019-04-14T20:49:32.080Z,7.60
2019-04-14T20:52:00.792Z,7.50
2019-04-14T20:54:29.574Z,7.40
2019-04-14T20:56:58.306Z,7.00
2019-04-14T20:59:27.057Z,6.80
2019-04-14T21:02:13.829Z,6.80
2019-04-14T21:05:02.200Z,6.80
2019-04-14T21:07:35.313Z,6.80
2019-04-14T21:10:07.141Z,6.70
2019-04-14T21:12:46.701Z,6.70
2019-04-14T21:15:20.104Z,6.60
2019-04-14T21:17:50.467Z,6.50
2019-04-14T21:20:20.833Z,6.60
2019-04-14T21:23:03.025Z,6.50
2019-04-14T21:25:35.982Z,6.50
2019-04-14T21:28:21.542Z,6.50
2019-04-14T21:30:57.902Z,6.50
2019-04-14T21:33:44.930Z,6.50
2019-04-14T21:36:15.297Z,6.60
2019-04-14T21:38:51.411Z,6.70
2019-04-14T21:41:21.774Z,6.80
2019-04-14T21:43:50.570Z,6.80
2019-04-14T21:46:19.393Z,6.80
2019-04-14T21:48:48.151Z,6.90
2019-04-14T21:51:16.875Z,6.80
2019-04-14T21:53:46.869Z,6.80
2019-04-14T21:56:15.598Z,6.80
2019-04-14T21:58:55.001Z,6.70
2019-04-14T22:01:44.429Z,6.70
2019-04-14T22:04:17.521Z,6.70
2019-04-14T22:06:51.144Z,6.70
2019-04-14T22:09:21.539Z,6.60
2019-04-14T22:11:51.013Z,6.60
2019-04-14T22:14:19.742Z,6.60
2019-04-14T22:16:48.551Z,6.60
2019-04-14T22:19:17.269Z,6.70
2019-04-14T22:21:47.451Z,6.60
2019-04-14T22:24:16.627Z,6.60
2019-04-14T22:26:45.414Z,6.60
2019-04-14T22:29:14.135Z,6.60
2019-04-14T22:31:42.965Z,6.60
2019-04-14T22:34:11.698Z,6.60
2019-04-14T22:36:40.497Z,6.70
2019-04-14T22:39:10.881Z,6.60
2019-04-14T22:41:39.614Z,6.60
2019-04-14T22:44:08.403Z,6.70
2019-04-14T22:46:37.173Z,6.60
2019-04-14T22:49:05.961Z,6.60
2019-04-14T22:51:34.705Z,6.70
2019-04-14T22:54:03.626Z,6.70
2019-04-14T22:56:39.215Z,6.70
2019-04-14T22:59:02.727Z,6.70
2019-04-14T23:01:33.141Z,6.70
2019-04-14T23:04:03.545Z,6.70
2019-04-14T23:06:33.842Z,6.70
2019-04-14T23:09:10.255Z,6.70
2019-04-14T23:11:43.129Z,6.70
2019-04-14T23:14:13.486Z,6.60
2019-04-14T23:16:49.682Z,6.60
2019-04-14T23:19:20.050Z,6.60
2019-04-14T23:21:55.918Z,6.50
2019-04-14T23:24:26.290Z,6.50
2019-04-14T23:26:55.021Z,6.50
2019-04-14T23:29:23.773Z,6.40
2019-04-14T23:31:52.565Z,6.40
2019-04-14T23:34:21.401Z,6.40
2019-04-14T23:36:50.124Z,6.40
2019-04-14T23:39:18.844Z,6.40
2019-04-14T23:41:47.593Z,6.40
2019-04-14T23:44:16.389Z,6.40
2019-04-14T23:46:45.110Z,6.50
2019-04-14T23:49:13.867Z,6.50
2019-04-14T23:51:42.586Z,6.50
2019-04-14T23:54:11.382Z,6.50
2019-04-14T23:56:40.206Z,6.50
2019-04-14T23:59:08.926Z,6.50
